createdAt,value
2023-01-15T00:02:10.337Z,6.73
2023-01-15T00:04:37.262Z,6.93
2023-01-15T00:07:04.590Z,6.73
2023-01-15T00:09:31.634Z,6.97
2023-01-15T00:11:58.613Z,6.50
2023-01-15T00:14:25.542Z,6.37
2023-01-15T00:16:53.272Z,6.73
2023-01-15T00:19:20.368Z,6.87
2023-01-15T00:21:47.503Z,7.27
2023-01-15T00:24:32.955Z,6.80
2023-01-15T00:27:18.658Z,6.73
2023-01-15T00:29:47.055Z,6.67
2023-01-15T00:32:13.957Z,7.93
2023-01-15T00:34:40.832Z,6.73
2023-01-15T00:37:07.942Z,6.30
2023-01-15T00:39:35.597Z,6.03
2023-01-15T00:42:03.335Z,6.47
2023-01-15T00:44:33.849Z,6.27
2023-01-15T00:47:01.015Z,6.67
2023-01-15T00:49:27.923Z,6.13
2023-01-15T00:51:54.846Z,6.43
2023-01-15T00:54:21.921Z,7.23
2023-01-15T00:56:48.753Z,6.40
2023-01-15T00:59:15.771Z,6.97
2023-01-15T01:01:43.554Z,6.30
2023-01-15T01:04:10.541Z,6.03
2023-01-15T01:06:37.477Z,6.47
2023-01-15T01:09:04.403Z,6.40
2023-01-15T01:11:34.293Z,6.37
2023-01-15T01:14:02.763Z,6.47
2023-01-15T01:16:47.935Z,7.23
2023-01-15T01:19:18.478Z,7.10
2023-01-15T01:21:46.457Z,6.93
2023-01-15T01:24:16.751Z,6.93
2023-01-15T01:26:45.324Z,7.03
2023-01-15T01:29:17.520Z,6.43
2023-01-15T01:31:44.604Z,6.80
2023-01-15T01:34:12.989Z,6.27
2023-01-15T01:36:42.799Z,6.03
2023-01-15T01:39:16.723Z,5.97
2023-01-15T01:41:44.019Z,6.63
2023-01-15T01:44:32.608Z,5.70
2023-01-15T01:47:03.250Z,6.07
2023-01-15T01:49:31.066Z,6.27
2023-01-15T01:52:04.025Z,6.47
2023-01-15T01:54:33.291Z,6.40
2023-01-15T01:57:00.605Z,6.63
2023-01-15T01:59:28.002Z,6.43
2023-01-15T02:01:54.951Z,5.83
2023-01-15T02:04:25.961Z,6.47
2023-01-15T02:06:53.761Z,6.70
2023-01-15T02:09:20.830Z,7.13
2023-01-15T02:11:50.260Z,6.50
2023-01-15T02:14:26.202Z,7.17
2023-01-15T02:17:18.717Z,7.17
2023-01-15T02:20:03.291Z,6.60
2023-01-15T02:22:48.264Z,7.50
2023-01-15T02:25:29.170Z,6.77
2023-01-15T02:28:27.447Z,6.50
2023-01-15T02:31:19.108Z,6.70
2023-01-15T02:33:55.524Z,6.63
2023-01-15T02:36:26.877Z,7.20
2023-01-15T02:38:58.564Z,7.17
2023-01-15T02:41:36.825Z,6.53
2023-01-15T02:44:06.840Z,6.77
2023-01-15T02:46:36.824Z,7.03
2023-01-15T02:49:11.747Z,7.07
2023-01-15T02:52:07.798Z,6.47
2023-01-15T02:54:53.377Z,6.40
2023-01-15T02:57:26.076Z,6.97
2023-01-15T02:59:58.698Z,6.57
2023-01-15T03:02:33.542Z,6.77
2023-01-15T03:05:13.392Z,6.50
2023-01-15T03:07:46.506Z,6.50
2023-01-15T03:10:14.636Z,6.23
2023-01-15T03:13:03.119Z,7.30
2023-01-15T03:16:14.316Z,6.80
2023-01-15T03:18:56.475Z,7.97
2023-01-15T03:21:31.491Z,7.77
2023-01-15T03:24:02.134Z,8.00
2023-01-15T03:26:29.220Z,7.63
2023-01-15T03:29:00.995Z,7.60
2023-01-15T03:31:29.975Z,7.77
2023-01-15T03:33:58.824Z,7.73
2023-01-15T03:36:25.744Z,6.73
2023-01-15T03:38:56.117Z,7.10
2023-01-15T03:41:47.334Z,7.97
2023-01-15T03:44:32.345Z,8.00
2023-01-15T03:47:12.979Z,9.53
2023-01-15T03:49:44.483Z,8.60
2023-01-15T03:52:45.915Z,7.63
2023-01-15T03:55:26.478Z,7.13
2023-01-15T03:58:12.996Z,7.80
2023-01-15T04:00:50.650Z,7.17
2023-01-15T04:03:21.712Z,7.00
2023-01-15T04:05:51.627Z,6.80
2023-01-15T04:08:21.304Z,7.20
2023-01-15T04:11:01.403Z,7.20
2023-01-15T04:13:32.181Z,7.43
2023-01-15T04:16:00.533Z,7.30
2023-01-15T04:18:27.981Z,7.33
2023-01-15T04:20:55.822Z,7.10
2023-01-15T04:23:23.692Z,7.57
2023-01-15T04:25:50.713Z,7.50
2023-01-15T04:28:17.612Z,6.70
2023-01-15T04:30:44.963Z,7.83
2023-01-15T04:33:12.089Z,7.87
2023-01-15T04:35:39.374Z,7.90
2023-01-15T04:38:06.237Z,7.50
2023-01-15T04:40:51.668Z,8.20
2023-01-15T04:43:37.065Z,8.37
2023-01-15T04:46:04.422Z,9.13
2023-01-15T04:48:31.713Z,9.87
2023-01-15T04:51:03.459Z,7.73
2023-01-15T04:53:30.348Z,8.53
2023-01-15T04:56:05.040Z,7.83
2023-01-15T04:58:32.916Z,8.03
2023-01-15T05:01:01.009Z,7.20
2023-01-15T05:03:29.006Z,7.40
2023-01-15T05:05:55.921Z,7.57
2023-01-15T05:08:22.771Z,8.30
2023-01-15T05:10:49.613Z,8.73
2023-01-15T05:13:16.478Z,8.50
2023-01-15T05:15:46.335Z,8.37
2023-01-15T05:18:16.003Z,7.50
2023-01-15T05:20:43.049Z,8.10
2023-01-15T05:23:10.079Z,7.70
2023-01-15T05:25:38.087Z,8.30
2023-01-15T05:28:05.190Z,8.10
2023-01-15T05:30:32.083Z,8.47
2023-01-15T05:32:58.896Z,9.80
2023-01-15T05:35:26.218Z,8.80
2023-01-15T05:37:53.250Z,10.43
2023-01-15T05:40:20.309Z,9.70
2023-01-15T05:42:47.260Z,9.97
2023-01-15T05:45:14.133Z,10.37
2023-01-15T05:47:41.084Z,9.83
2023-01-15T05:50:08.658Z,10.87
2023-01-15T05:52:35.800Z,11.30
2023-01-15T05:55:02.853Z,12.60
2023-01-15T05:57:29.889Z,11.67
2023-01-15T05:59:57.011Z,12.00
2023-01-15T06:02:24.209Z,10.83
2023-01-15T06:04:51.210Z,11.00
2023-01-15T06:07:18.377Z,10.03
2023-01-15T06:09:46.039Z,9.83
2023-01-15T06:12:12.975Z,9.23
2023-01-15T06:14:39.906Z,8.77
2023-01-15T06:17:06.949Z,8.60
2023-01-15T06:19:33.899Z,10.33
2023-01-15T06:22:01.260Z,10.57
2023-01-15T06:24:28.349Z,11.83
2023-01-15T06:26:55.498Z,13.20
2023-01-15T06:29:22.881Z,13.70
2023-01-15T06:31:49.989Z,13.53
2023-01-15T06:34:17.485Z,11.87
2023-01-15T06:36:45.305Z,13.73
2023-01-15T06:39:12.249Z,12.60
2023-01-15T06:42:37.525Z,12.87
2023-01-15T06:45:23.551Z,9.80
2023-01-15T06:47:50.645Z,8.77
2023-01-15T06:50:17.580Z,9.53
2023-01-15T06:52:44.604Z,10.13
2023-01-15T06:55:11.791Z,10.87
2023-01-15T06:57:41.004Z,9.60
2023-01-15T07:00:08.991Z,11.53
2023-01-15T07:02:36.716Z,11.20
2023-01-15T07:05:05.020Z,11.03
2023-01-15T07:07:32.079Z,9.33
2023-01-15T07:09:59.059Z,9.90
2023-01-15T07:12:26.077Z,11.47
2023-01-15T07:14:53.370Z,11.20
2023-01-15T07:17:20.381Z,12.20
2023-01-15T07:19:47.451Z,13.77
2023-01-15T07:22:14.499Z,14.73
2023-01-15T07:24:41.773Z,14.37
2023-01-15T07:27:08.674Z,15.73
2023-01-15T07:29:35.765Z,15.50
2023-01-15T08:47:19.408Z,8.90
2023-01-15T08:49:50.716Z,9.23
2023-01-15T08:52:17.664Z,9.37
2023-01-15T08:54:44.597Z,8.97
2023-01-15T08:57:13.691Z,9.57
2023-01-15T08:59:43.482Z,10.37
2023-01-15T09:02:14.974Z,12.47
2023-01-15T09:04:42.395Z,11.50
2023-01-15T09:07:09.365Z,11.03
2023-01-15T09:09:36.325Z,12.40
2023-01-15T09:12:03.336Z,11.37
2023-01-15T09:14:56.541Z,12.07
2023-01-15T09:17:17.300Z,13.10
2023-01-15T09:19:44.139Z,13.40
2023-01-15T09:22:10.999Z,14.73
2023-01-15T09:24:37.940Z,13.93
2023-01-15T09:27:04.916Z,13.10
2023-01-15T09:29:31.822Z,11.50
2023-01-15T09:31:58.868Z,13.43
2023-01-15T09:34:25.767Z,15.47
2023-01-15T09:36:52.709Z,16.80
2023-01-15T09:39:19.751Z,11.90
2023-01-15T09:48:52.040Z,15.00
2023-01-15T09:51:47.469Z,13.40
2023-01-15T09:54:51.999Z,17.27
2023-01-15T09:57:20.423Z,14.07
2023-01-15T09:59:49.466Z,13.63
2023-01-15T10:02:28.728Z,11.30
2023-01-15T10:05:15.779Z,13.87
2023-01-15T10:07:54.953Z,11.30
2023-01-15T10:10:26.976Z,11.43
2023-01-15T10:13:00.981Z,11.90
2023-01-15T10:15:33.087Z,12.17
2023-01-15T10:18:00.454Z,11.57
2023-01-15T10:20:33.647Z,12.20
2023-01-15T10:23:40.470Z,15.10
2023-01-15T10:26:31.338Z,12.90
2023-01-15T10:29:01.202Z,14.87
2023-01-15T10:31:45.497Z,14.80
2023-01-15T10:34:35.128Z,13.03
2023-01-15T10:37:08.195Z,13.80
2023-01-15T10:39:38.988Z,14.53
2023-01-15T10:42:32.595Z,13.47
2023-01-15T10:45:44.968Z,10.80
2023-01-15T10:48:23.962Z,11.37
2023-01-15T10:50:51.021Z,12.77
2023-01-15T10:53:39.434Z,14.17
2023-01-15T10:56:15.987Z,13.07
2023-01-15T10:58:49.328Z,13.70
2023-01-15T11:01:19.989Z,16.70
2023-01-15T11:03:47.603Z,14.73
2023-01-15T11:06:17.342Z,13.13
2023-01-15T11:12:00.771Z,14.20
2023-01-15T11:15:00.987Z,14.20
2023-01-15T11:17:55.957Z,18.07
2023-01-15T11:20:30.007Z,14.93
2023-01-15T11:23:06.375Z,13.93
2023-01-15T11:25:33.741Z,17.23
2023-01-15T11:28:04.792Z,14.80
2023-01-15T11:30:37.602Z,15.97
2023-01-15T11:33:07.374Z,12.63
2023-01-15T11:35:34.917Z,12.07
2023-01-15T11:38:14.299Z,12.53
2023-01-15T11:40:53.578Z,12.93
2023-01-15T11:43:41.823Z,11.40
2023-01-15T11:46:45.813Z,15.03
2023-01-15T11:49:36.089Z,13.97
2023-01-15T11:52:14.594Z,13.60
2023-01-15T11:54:46.079Z,11.83
2023-01-15T11:57:27.612Z,10.50
2023-01-15T11:59:54.600Z,10.07
2023-01-15T12:02:51.012Z,10.17
2023-01-15T12:05:36.691Z,12.40
2023-01-15T12:08:16.899Z,12.23
2023-01-15T12:11:21.296Z,13.43
2023-01-15T12:14:31.272Z,11.53
2023-01-15T12:17:25.165Z,12.17
2023-01-15T12:19:58.155Z,14.80
2023-01-15T12:22:25.157Z,13.93
2023-01-15T12:25:30.432Z,13.90
2023-01-15T12:28:27.891Z,15.03
2023-01-15T12:31:10.910Z,16.37
2023-01-15T12:33:49.200Z,16.20
2023-01-15T12:36:24.089Z,14.07
2023-01-15T12:38:58.659Z,14.90
2023-01-15T12:42:04.035Z,13.77
2023-01-15T12:44:58.579Z,10.17
2023-01-15T12:47:30.259Z,11.77
2023-01-15T12:50:09.018Z,12.83
2023-01-15T12:52:40.454Z,13.03
2023-01-15T12:55:15.635Z,11.67
2023-01-15T12:57:54.976Z,12.30
2023-01-15T13:00:28.757Z,11.70
2023-01-15T13:03:16.651Z,12.87
2023-01-15T13:05:58.182Z,12.20
2023-01-15T13:09:01.372Z,10.33
2023-01-15T13:11:28.366Z,10.67
2023-01-15T13:13:58.307Z,13.37
2023-01-15T13:16:44.919Z,10.60
2023-01-15T13:19:23.321Z,11.13
2023-01-15T13:21:53.071Z,11.30
2023-01-15T13:24:28.791Z,11.27
2023-01-15T13:27:22.378Z,10.90
2023-01-15T13:30:02.796Z,13.10
2023-01-15T13:32:42.431Z,13.03
2023-01-15T13:35:13.823Z,13.43
2023-01-15T13:37:45.602Z,10.43
2023-01-15T13:40:27.544Z,9.90
2023-01-15T13:42:56.214Z,11.77
2023-01-15T13:45:28.171Z,10.17
2023-01-15T13:48:24.070Z,10.17
2023-01-15T13:50:57.842Z,11.30
2023-01-15T13:53:36.962Z,12.70
2023-01-15T13:56:15.090Z,14.90
2023-01-15T13:58:58.748Z,13.53
2023-01-15T14:01:31.553Z,13.33
2023-01-15T14:04:01.516Z,14.13
2023-01-15T14:06:48.187Z,17.17
2023-01-15T14:09:34.494Z,15.77
2023-01-15T14:12:12.751Z,11.93
2023-01-15T14:15:10.230Z,16.00
2023-01-15T14:17:57.830Z,16.53
2023-01-15T14:20:55.594Z,14.90
2023-01-15T14:24:14.301Z,14.00
2023-01-15T14:27:10.030Z,14.10
2023-01-15T14:29:58.113Z,11.40
2023-01-15T14:32:30.621Z,12.27
2023-01-15T14:35:00.596Z,11.57
2023-01-15T14:37:31.296Z,10.37
2023-01-15T14:40:01.022Z,10.50
2023-01-15T14:42:53.377Z,10.73
2023-01-15T14:45:36.338Z,11.60
2023-01-15T14:48:18.819Z,10.80
2023-01-15T14:50:47.056Z,10.43
2023-01-15T14:53:14.036Z,11.53
2023-01-15T14:55:49.632Z,12.20
2023-01-15T14:58:36.614Z,11.67
2023-01-15T15:01:17.462Z,13.07
2023-01-15T15:03:54.087Z,14.67
2023-01-15T15:06:21.622Z,16.20
2023-01-15T15:08:51.185Z,14.00
2023-01-15T15:11:57.988Z,16.10
2023-01-15T15:14:26.719Z,13.87
2023-01-15T15:16:58.805Z,13.77
2023-01-15T15:19:41.171Z,13.00
2023-01-15T15:22:13.347Z,13.07
2023-01-15T15:24:47.584Z,13.70
2023-01-15T15:27:23.418Z,12.53
2023-01-15T15:29:50.838Z,14.07
2023-01-15T15:32:20.550Z,15.13
2023-01-15T15:34:53.448Z,16.90
2023-01-15T15:37:26.638Z,20.10
2023-01-15T15:40:00.220Z,22.77
2023-01-15T16:51:32.970Z,22.13
2023-01-15T16:54:05.926Z,23.60
2023-01-15T16:56:36.163Z,16.17
2023-01-15T16:59:17.113Z,15.33
2023-01-15T17:01:46.647Z,14.10
2023-01-15T17:04:29.328Z,13.93
2023-01-15T17:07:02.544Z,15.10
2023-01-15T17:09:34.506Z,14.60
2023-01-15T17:12:08.010Z,18.23
2023-01-15T17:14:35.382Z,15.00
2023-01-15T17:17:28.621Z,14.73
2023-01-15T17:20:00.216Z,12.27
2023-01-15T17:22:32.313Z,10.33
2023-01-15T17:25:01.162Z,9.87
2023-01-15T17:27:29.978Z,11.10
2023-01-15T17:29:57.243Z,12.50
2023-01-15T17:32:32.391Z,12.87
2023-01-15T17:34:59.603Z,12.80
2023-01-15T17:37:27.000Z,14.40
2023-01-15T17:39:54.361Z,14.23
2023-01-15T17:42:21.940Z,11.83
2023-01-15T17:44:48.854Z,16.60
2023-01-15T17:47:16.121Z,13.10
2023-01-15T17:49:42.972Z,13.63
2023-01-15T17:52:19.597Z,13.27
2023-01-15T17:55:05.166Z,13.17
2023-01-15T17:57:51.098Z,13.63
2023-01-15T18:00:37.159Z,13.30
2023-01-15T18:03:23.072Z,10.23
2023-01-15T18:05:51.703Z,12.63
2023-01-15T18:08:19.387Z,13.80
2023-01-15T18:10:46.316Z,16.70
2023-01-15T18:13:13.236Z,16.90
2023-01-15T18:15:40.153Z,18.13
2023-01-15T18:18:07.232Z,16.97
2023-01-15T18:20:34.234Z,12.53
2023-01-15T18:23:01.361Z,14.37
2023-01-15T18:25:28.568Z,13.87
2023-01-15T18:27:56.002Z,12.83
2023-01-15T18:30:23.235Z,13.37
2023-01-15T18:32:50.525Z,11.37
2023-01-15T18:35:18.523Z,9.13
2023-01-15T18:37:45.460Z,11.37
2023-01-15T18:40:12.848Z,10.13
2023-01-15T18:43:00.036Z,11.60
2023-01-15T18:45:45.720Z,11.37
2023-01-15T18:48:12.599Z,10.40
2023-01-15T18:50:39.876Z,15.50
2023-01-15T18:53:08.620Z,11.50
2023-01-15T18:55:35.517Z,11.17
2023-01-15T18:58:02.417Z,11.73
2023-01-15T19:00:29.599Z,12.13
2023-01-15T19:02:56.561Z,11.90
2023-01-15T19:05:23.521Z,10.87
2023-01-15T19:07:50.748Z,11.80
2023-01-15T19:10:18.707Z,11.20
2023-01-15T19:12:46.068Z,10.70
2023-01-15T19:15:35.762Z,11.23
2023-01-15T19:18:22.521Z,10.87
2023-01-15T19:20:50.056Z,9.83
2023-01-15T19:23:17.229Z,10.57
2023-01-15T19:25:46.616Z,12.30
2023-01-15T19:28:16.547Z,12.00
2023-01-15T19:31:04.118Z,13.90
2023-01-15T19:33:31.701Z,15.00
2023-01-15T19:35:59.161Z,17.40
2023-01-15T19:38:26.130Z,15.20
2023-01-15T19:40:53.093Z,15.67
2023-01-15T19:43:38.511Z,16.87
2023-01-15T19:46:24.236Z,14.43
2023-01-15T19:49:09.633Z,13.27
2023-01-15T19:51:55.424Z,13.97
2023-01-15T19:54:42.341Z,12.90
2023-01-15T19:57:09.911Z,12.13
2023-01-15T19:59:37.150Z,9.97
2023-01-15T20:02:04.933Z,10.73
2023-01-15T20:04:31.886Z,9.43
2023-01-15T20:06:58.843Z,10.37
2023-01-15T20:09:25.689Z,10.30
2023-01-15T20:12:11.429Z,10.10
2023-01-15T20:14:38.256Z,14.80
2023-01-15T20:17:05.146Z,17.07
2023-01-15T20:19:32.350Z,11.70
2023-01-15T20:21:59.334Z,19.03
2023-01-15T20:24:26.356Z,13.20
2023-01-15T20:26:53.147Z,12.50
2023-01-15T20:29:20.413Z,13.63
2023-01-15T20:31:47.495Z,16.87
2023-01-15T20:34:14.809Z,10.17
2023-01-15T20:36:41.839Z,11.77
2023-01-15T20:39:09.079Z,13.20
2023-01-15T20:41:54.680Z,13.90
2023-01-15T20:44:40.000Z,14.67
2023-01-15T20:47:27.027Z,13.67
2023-01-15T20:49:53.896Z,10.90
2023-01-15T20:52:20.791Z,13.33
2023-01-15T20:54:47.713Z,13.90
2023-01-15T20:57:14.618Z,18.60
2023-01-15T20:59:41.587Z,16.30
2023-01-15T21:02:11.847Z,17.77
2023-01-15T21:04:38.831Z,22.00
2023-01-15T21:07:05.773Z,29.17
2023-01-15T21:09:32.742Z,33.13
2023-01-15T21:11:59.638Z,33.37
2023-01-15T21:14:26.566Z,37.27
2023-01-15T21:16:53.725Z,24.10
2023-01-15T21:19:21.445Z,19.03
2023-01-15T21:21:48.295Z,19.73
2023-01-15T21:24:15.170Z,15.70
2023-01-15T21:26:42.161Z,13.70
2023-01-15T21:29:09.087Z,14.77
2023-01-15T21:31:36.031Z,16.67
2023-01-15T21:34:04.401Z,17.50
2023-01-15T21:36:31.336Z,15.23
2023-01-15T21:38:59.102Z,14.87
2023-01-15T21:41:46.246Z,13.47
2023-01-15T21:44:31.838Z,13.63
2023-01-15T21:47:00.266Z,12.03
2023-01-15T21:49:27.785Z,11.20
2023-01-15T21:51:55.021Z,10.80
2023-01-15T21:54:21.873Z,11.03
2023-01-15T21:56:48.891Z,10.43
2023-01-15T21:59:15.725Z,11.40
2023-01-15T22:01:42.679Z,11.93
2023-01-15T22:04:10.707Z,11.70
2023-01-15T22:06:38.133Z,12.13
2023-01-15T22:09:05.259Z,11.50
2023-01-15T22:11:44.676Z,11.90
2023-01-15T22:14:17.712Z,13.47
2023-01-15T22:16:45.629Z,15.63
2023-01-15T22:19:20.913Z,18.57
2023-01-15T22:21:54.141Z,19.40
2023-01-15T22:24:21.581Z,22.17
2023-01-15T22:26:54.244Z,19.73
2023-01-15T22:29:27.455Z,17.63
2023-01-15T22:31:54.796Z,19.03
2023-01-15T22:34:22.921Z,17.53
2023-01-15T22:36:51.472Z,17.67
2023-01-15T22:39:18.965Z,16.40
2023-01-15T22:42:05.276Z,17.30
2023-01-15T22:44:32.832Z,17.87
2023-01-15T22:47:00.418Z,17.07
2023-01-15T22:49:27.524Z,16.30
2023-01-15T22:51:54.470Z,16.87
2023-01-15T22:54:21.414Z,16.33
2023-01-15T22:56:48.414Z,16.83
2023-01-15T22:59:15.895Z,14.53
2023-01-15T23:01:43.147Z,15.50
2023-01-15T23:04:19.257Z,20.03
2023-01-15T23:06:46.577Z,20.77
2023-01-15T23:09:13.897Z,24.60
2023-01-15T23:11:41.101Z,23.33
2023-01-15T23:14:10.491Z,21.40
2023-01-15T23:16:37.475Z,20.00
2023-01-15T23:19:06.182Z,18.87
2023-01-15T23:21:33.362Z,15.40
2023-01-15T23:24:02.354Z,13.87
2023-01-15T23:26:32.240Z,13.77
2023-01-15T23:28:59.660Z,12.07
2023-01-15T23:31:27.824Z,12.63
2023-01-15T23:33:54.782Z,11.60
2023-01-15T23:36:22.672Z,12.30
2023-01-15T23:38:49.576Z,12.30
2023-01-15T23:41:18.648Z,12.30
2023-01-15T23:44:04.740Z,9.73
2023-01-15T23:46:37.895Z,11.43
2023-01-15T23:49:08.978Z,10.43
2023-01-15T23:51:36.865Z,10.93
2023-01-15T23:54:04.910Z,11.33
2023-01-15T23:56:33.081Z,10.60
2023-01-15T23:59:00.561Z,10.23
